createdAt,value
2022-09-02T00:01:59.301Z,9.25
2022-09-02T00:04:28.804Z,9.66
2022-09-02T00:06:58.095Z,9.29
2022-09-02T00:09:27.755Z,9.25
2022-09-02T00:11:58.132Z,9.29
2022-09-02T00:14:30.197Z,9.46
2022-09-02T00:17:01.725Z,9.39
2022-09-02T00:19:32.578Z,9.35
2022-09-02T00:22:02.811Z,9.33
2022-09-02T00:24:32.398Z,9.38
2022-09-02T00:27:02.446Z,9.45
2022-09-02T00:29:32.130Z,9.22
2022-09-02T00:32:02.792Z,9.31
2022-09-02T00:34:32.221Z,9.38
2022-09-02T00:37:01.791Z,9.40
2022-09-02T00:39:31.792Z,9.37
2022-09-02T00:42:01.615Z,9.45
2022-09-02T00:44:30.983Z,9.48
2022-09-02T00:47:02.066Z,9.43
2022-09-02T00:49:35.020Z,9.53
2022-09-02T00:52:09.242Z,9.54
2022-09-02T00:54:42.632Z,9.56
2022-09-02T00:57:19.705Z,9.56
2022-09-02T00:59:56.064Z,9.60
2022-09-02T01:02:29.391Z,9.55
2022-09-02T01:04:59.408Z,9.55
2022-09-02T01:07:34.122Z,9.57
2022-09-02T01:10:03.928Z,9.37
2022-09-02T01:12:34.197Z,9.44
2022-09-02T01:15:04.358Z,9.38
2022-09-02T01:17:35.342Z,9.35
2022-09-02T01:20:12.261Z,9.27
2022-09-02T01:22:43.288Z,9.29
2022-09-02T01:25:18.331Z,9.30
2022-09-02T01:27:48.405Z,9.18
2022-09-02T01:30:21.718Z,9.04
2022-09-02T01:32:50.928Z,9.11
2022-09-02T01:35:20.417Z,9.09
2022-09-02T01:37:54.759Z,9.13
2022-09-02T01:40:27.163Z,9.10
2022-09-02T01:42:59.665Z,9.00
2022-09-02T01:45:29.666Z,8.90
2022-09-02T01:47:59.216Z,8.87
2022-09-02T01:50:28.997Z,8.68
2022-09-02T01:53:04.161Z,8.57
2022-09-02T01:55:36.223Z,8.54
2022-09-02T01:58:05.770Z,8.42
2022-09-02T02:00:35.834Z,8.33
2022-09-02T02:03:05.766Z,8.31
2022-09-02T02:05:35.708Z,8.24
2022-09-02T02:08:07.439Z,8.30
2022-09-02T02:10:37.049Z,8.31
2022-09-02T02:13:07.618Z,8.30
2022-09-02T02:15:42.037Z,8.28
2022-09-02T02:18:13.174Z,8.33
2022-09-02T02:20:44.868Z,8.27
2022-09-02T02:23:18.141Z,8.17
2022-09-02T02:25:47.565Z,8.10
2022-09-02T02:28:16.914Z,7.94
2022-09-02T02:30:47.001Z,8.07
2022-09-02T02:33:17.365Z,7.97
2022-09-02T02:35:47.313Z,7.94
2022-09-02T02:38:17.917Z,7.94
2022-09-02T02:40:47.801Z,8.06
2022-09-02T02:43:17.421Z,8.06
2022-09-02T02:45:46.603Z,8.28
2022-09-02T02:48:15.952Z,8.15
2022-09-02T02:50:45.553Z,8.24
2022-09-02T02:53:14.510Z,8.18
2022-09-02T02:55:50.058Z,8.22
2022-09-02T02:58:21.364Z,8.20
2022-09-02T03:00:51.705Z,8.22
2022-09-02T03:03:22.757Z,8.54
2022-09-02T03:05:55.555Z,8.37
2022-09-02T03:08:26.989Z,8.33
2022-09-02T03:10:58.756Z,8.45
2022-09-02T03:13:32.825Z,8.52
2022-09-02T03:16:05.297Z,8.49
2022-09-02T03:18:36.382Z,8.47
2022-09-02T03:21:09.474Z,8.66
2022-09-02T03:23:39.741Z,8.63
2022-09-02T03:26:18.587Z,8.84
2022-09-02T03:28:49.681Z,8.74
2022-09-02T03:31:22.457Z,8.80
2022-09-02T03:33:52.994Z,8.77
2022-09-02T03:36:26.238Z,8.96
2022-09-02T03:38:56.928Z,8.90
2022-09-02T03:41:28.434Z,9.02
2022-09-02T03:43:59.936Z,8.95
2022-09-02T03:46:31.473Z,9.09
2022-09-02T03:49:01.023Z,9.09
2022-09-02T03:51:31.367Z,9.08
2022-09-02T03:54:02.824Z,9.36
2022-09-02T03:56:36.307Z,9.22
2022-09-02T03:59:06.517Z,9.27
2022-09-02T04:01:36.617Z,9.29
2022-09-02T04:04:07.992Z,9.47
2022-09-02T04:06:39.145Z,9.39
2022-09-02T04:09:09.013Z,9.39
2022-09-02T04:11:43.606Z,9.59
2022-09-02T04:14:16.693Z,9.66
2022-09-02T04:16:46.469Z,9.70
2022-09-02T04:19:16.492Z,9.69
2022-09-02T04:21:46.328Z,9.71
2022-09-02T04:24:16.570Z,9.68
2022-09-02T04:26:51.390Z,9.72
2022-09-02T04:29:21.562Z,9.72
2022-09-02T04:31:55.432Z,9.55
2022-09-02T04:34:25.637Z,9.70
2022-09-02T04:36:56.597Z,9.68
2022-09-02T04:39:26.649Z,9.62
2022-09-02T04:41:57.921Z,9.71
2022-09-02T04:44:28.994Z,9.68
2022-09-02T04:46:59.598Z,9.60
2022-09-02T04:49:32.235Z,9.42
2022-09-02T04:52:03.787Z,9.44
2022-09-02T04:54:35.885Z,9.35
2022-09-02T04:57:08.462Z,9.42
2022-09-02T04:59:39.139Z,9.48
2022-09-02T05:02:12.701Z,9.53
2022-09-02T05:04:43.809Z,9.49
2022-09-02T05:07:22.991Z,9.61
2022-09-02T05:09:57.184Z,9.59
2022-09-02T05:12:29.585Z,9.74
2022-09-02T05:15:04.117Z,9.74
2022-09-02T05:17:36.895Z,9.63
2022-09-02T05:20:10.557Z,9.66
2022-09-02T05:22:43.494Z,9.86
2022-09-02T05:25:15.634Z,9.89
2022-09-02T05:27:48.828Z,9.60
2022-09-02T05:30:18.480Z,9.76
2022-09-02T05:32:50.124Z,9.27
2022-09-02T05:35:22.719Z,9.16
2022-09-02T05:38:00.108Z,9.26
2022-09-02T05:40:30.913Z,9.80
2022-09-02T05:43:05.221Z,10.06
2022-09-02T05:45:35.619Z,10.40
2022-09-02T05:48:27.224Z,10.43
2022-09-02T05:51:01.414Z,10.53
2022-09-02T05:53:34.230Z,10.24
2022-09-02T05:56:07.484Z,10.18
2022-09-02T05:58:46.554Z,10.42
2022-09-02T06:01:20.248Z,10.34
2022-09-02T06:03:50.630Z,10.58
2022-09-02T06:06:23.562Z,10.83
2022-09-02T06:08:53.302Z,10.80
2022-09-02T06:11:24.875Z,10.99
2022-09-02T06:13:57.157Z,11.20
2022-09-02T06:16:27.749Z,10.77
2022-09-02T06:18:58.475Z,10.77
2022-09-02T06:21:28.487Z,10.86
2022-09-02T06:24:00.413Z,10.76
2022-09-02T06:26:30.545Z,10.80
2022-09-02T06:29:02.053Z,10.66
2022-09-02T06:31:34.580Z,10.56
2022-09-02T06:34:06.095Z,10.72
2022-09-02T06:36:35.527Z,11.02
2022-09-02T06:39:06.197Z,10.90
2022-09-02T06:41:36.647Z,11.03
2022-09-02T06:44:16.273Z,10.97
2022-09-02T06:46:51.694Z,10.84
2022-09-02T06:49:25.281Z,10.33
2022-09-02T06:51:57.071Z,10.51
2022-09-02T06:54:33.794Z,10.50
2022-09-02T06:57:15.772Z,10.31
2022-09-02T06:59:46.931Z,10.50
2022-09-02T07:02:19.523Z,10.86
2022-09-02T07:05:09.332Z,11.52
2022-09-02T07:07:42.525Z,11.78
2022-09-02T07:10:16.931Z,12.14
2022-09-02T07:12:53.836Z,12.28
2022-09-02T07:15:27.498Z,12.39
2022-09-02T07:17:59.688Z,12.48
2022-09-02T07:20:37.231Z,12.49
2022-09-02T07:23:07.137Z,11.90
2022-09-02T07:25:41.828Z,12.24
2022-09-02T07:28:15.136Z,13.24
2022-09-02T07:30:46.203Z,14.47
2022-09-02T07:33:19.795Z,14.38
2022-09-02T07:35:50.546Z,14.84
2022-09-02T07:38:20.920Z,13.89
2022-09-02T07:40:57.130Z,14.02
2022-09-02T07:43:33.469Z,14.80
2022-09-02T07:46:04.955Z,14.95
2022-09-02T07:48:35.911Z,14.20
2022-09-02T07:51:06.954Z,13.05
2022-09-02T07:53:38.619Z,12.30
2022-09-02T07:56:11.092Z,12.37
2022-09-02T07:58:41.812Z,12.82
2022-09-02T08:01:14.715Z,12.61
2022-09-02T08:03:46.451Z,12.47
2022-09-02T08:06:17.504Z,12.49
2022-09-02T08:08:57.977Z,13.55
2022-09-02T08:11:27.716Z,13.61
2022-09-02T08:13:57.943Z,15.15
2022-09-02T08:16:30.278Z,15.21
2022-09-02T08:19:02.751Z,13.73
2022-09-02T08:21:32.206Z,12.54
2022-09-02T08:24:02.706Z,12.16
2022-09-02T08:26:37.376Z,11.47
2022-09-02T08:29:43.910Z,11.04
2022-09-02T08:32:16.537Z,10.72
2022-09-02T08:34:48.441Z,10.71
2022-09-02T08:37:20.709Z,11.07
2022-09-02T08:39:54.336Z,11.00
2022-09-02T08:42:28.022Z,10.86
2022-09-02T08:45:14.250Z,11.71
2022-09-02T08:47:50.713Z,13.53
2022-09-02T08:50:26.813Z,15.64
2022-09-02T08:53:06.951Z,17.79
2022-09-02T08:55:44.849Z,18.62
2022-09-02T08:58:19.520Z,17.42
2022-09-02T09:00:59.751Z,16.73
2022-09-02T09:03:38.103Z,15.91
2022-09-02T09:06:15.813Z,16.19
2022-09-02T09:08:53.036Z,16.05
2022-09-02T09:11:31.035Z,16.50
2022-09-02T09:14:16.654Z,15.29
2022-09-02T09:17:00.007Z,15.23
2022-09-02T09:19:42.746Z,14.82
2022-09-02T09:22:17.225Z,14.85
2022-09-02T09:24:48.649Z,14.34
2022-09-02T09:27:20.930Z,16.00
2022-09-02T09:29:52.504Z,17.75
2022-09-02T09:32:27.843Z,17.58
2022-09-02T09:35:03.266Z,16.19
2022-09-02T09:37:36.428Z,15.26
2022-09-02T09:40:33.439Z,15.26
2022-09-02T09:43:24.511Z,15.63
2022-09-02T09:45:56.071Z,15.85
2022-09-02T09:48:32.949Z,15.64
2022-09-02T09:51:19.605Z,15.78
2022-09-02T09:53:49.594Z,15.14
2022-09-02T09:56:37.276Z,16.40
2022-09-02T09:59:10.803Z,16.81
2022-09-02T10:01:41.115Z,15.55
2022-09-02T10:07:06.483Z,15.83
2022-09-02T10:09:37.734Z,17.87
2022-09-02T10:12:09.781Z,17.49
2022-09-02T10:14:42.023Z,16.05
2022-09-02T10:17:24.155Z,15.33
2022-09-02T10:19:59.297Z,14.89
2022-09-02T10:22:59.560Z,14.83
2022-09-02T10:25:38.121Z,15.09
2022-09-02T10:28:23.292Z,14.61
2022-09-02T10:31:04.405Z,14.15
2022-09-02T10:33:42.678Z,12.88
2022-09-02T10:36:25.261Z,12.52
2022-09-02T10:39:05.872Z,12.53
2022-09-02T10:44:33.083Z,12.22
2022-09-02T10:47:05.100Z,12.13
2022-09-02T10:50:05.414Z,12.00
2022-09-02T10:53:11.399Z,11.74
2022-09-02T10:55:51.243Z,12.03
2022-09-02T10:58:24.960Z,11.80
2022-09-02T11:00:58.791Z,12.12
2022-09-02T11:03:35.404Z,15.00
2022-09-02T11:06:12.131Z,16.44
2022-09-02T11:08:56.686Z,16.29
2022-09-02T11:11:33.966Z,17.03
2022-09-02T11:16:51.451Z,18.37
2022-09-02T11:19:28.671Z,18.74
2022-09-02T11:22:12.725Z,19.41
2022-09-02T11:24:48.760Z,20.02
2022-09-02T11:27:41.486Z,18.25
2022-09-02T11:30:15.670Z,16.91
2022-09-02T11:32:51.721Z,15.91
2022-09-02T11:35:28.852Z,16.52
2022-09-02T11:38:05.272Z,17.38
2022-09-02T11:40:44.695Z,17.07
2022-09-02T11:43:36.825Z,16.06
2022-09-02T11:46:40.182Z,16.37
2022-09-02T11:49:44.546Z,18.12
2022-09-02T11:52:40.234Z,19.55
2022-09-02T11:55:16.763Z,20.21
2022-09-02T11:57:57.705Z,18.16
2022-09-02T12:00:34.268Z,17.21
2022-09-02T12:03:40.886Z,15.86
2022-09-02T12:06:10.791Z,14.91
2022-09-02T12:09:09.940Z,15.12
2022-09-02T12:11:57.283Z,15.65
2022-09-02T12:15:11.703Z,15.83
2022-09-02T12:18:09.981Z,15.63
2022-09-02T12:21:16.391Z,15.64
2022-09-02T12:24:21.539Z,14.95
2022-09-02T12:27:20.566Z,15.64
2022-09-02T12:29:52.164Z,15.00
2022-09-02T12:33:02.585Z,15.80
2022-09-02T12:35:52.084Z,15.59
2022-09-02T12:38:30.639Z,15.58
2022-09-02T12:41:24.817Z,15.23
2022-09-02T12:44:24.374Z,15.30
2022-09-02T12:47:03.058Z,15.25
2022-09-02T12:49:51.233Z,14.90
2022-09-02T12:52:49.124Z,15.39
2022-09-02T12:55:25.975Z,15.33
2022-09-02T12:58:08.078Z,14.98
2022-09-02T13:00:53.462Z,15.54
2022-09-02T13:03:49.516Z,15.83
2022-09-02T13:06:29.853Z,15.93
2022-09-02T13:09:30.946Z,15.97
2022-09-02T13:12:37.053Z,15.60
2022-09-02T13:15:25.393Z,15.57
2022-09-02T13:18:30.997Z,15.11
2022-09-02T13:21:37.974Z,14.94
2022-09-02T13:24:42.149Z,14.84
2022-09-02T13:27:42.950Z,14.04
2022-09-02T13:30:20.585Z,13.49
2022-09-02T13:33:07.846Z,13.24
2022-09-02T13:35:40.721Z,13.34
2022-09-02T13:38:16.473Z,13.75
2022-09-02T13:43:24.253Z,14.01
2022-09-02T13:45:56.930Z,13.93
2022-09-02T13:48:29.156Z,14.07
2022-09-02T13:51:02.020Z,14.82
2022-09-02T13:54:18.233Z,15.51
2022-09-02T13:56:32.206Z,15.70
2022-09-02T13:59:04.537Z,15.19
2022-09-02T14:01:37.130Z,14.99
2022-09-02T14:04:18.290Z,15.05
2022-09-02T14:06:49.197Z,15.05
2022-09-02T14:09:23.752Z,14.71
2022-09-02T14:11:55.854Z,14.53
2022-09-02T14:14:28.702Z,14.52
2022-09-02T14:17:21.305Z,14.56
2022-09-02T14:19:52.174Z,14.33
2022-09-02T14:22:29.980Z,14.15
2022-09-02T14:25:01.908Z,14.23
2022-09-02T14:27:34.190Z,14.10
2022-09-02T14:30:11.274Z,14.03
2022-09-02T14:32:46.899Z,13.97
2022-09-02T14:35:23.666Z,13.46
2022-09-02T14:37:58.006Z,13.03
2022-09-02T14:40:57.189Z,12.60
2022-09-02T14:43:31.508Z,12.19
2022-09-02T14:46:09.182Z,12.12
2022-09-02T14:48:40.506Z,12.13
2022-09-02T14:51:11.196Z,12.26
2022-09-02T14:53:45.716Z,12.63
2022-09-02T14:56:15.334Z,12.91
2022-09-02T14:58:46.032Z,13.19
2022-09-02T15:01:17.609Z,13.22
2022-09-02T15:03:51.614Z,13.38
2022-09-02T15:06:21.844Z,13.26
2022-09-02T15:08:51.705Z,13.09
2022-09-02T15:11:24.643Z,13.03
2022-09-02T15:13:55.270Z,12.85
2022-09-02T15:16:27.049Z,12.52
2022-09-02T15:18:57.058Z,12.19
2022-09-02T15:21:29.685Z,12.23
2022-09-02T15:23:59.776Z,12.12
2022-09-02T15:26:29.687Z,12.22
2022-09-02T15:29:02.673Z,12.40
2022-09-02T15:31:40.080Z,12.60
2022-09-02T15:34:13.802Z,12.58
2022-09-02T15:36:44.571Z,12.72
2022-09-02T15:39:14.855Z,12.70
2022-09-02T15:41:48.726Z,12.72
2022-09-02T15:44:18.500Z,12.59
2022-09-02T15:46:50.182Z,12.49
2022-09-02T15:49:23.895Z,12.30
2022-09-02T15:51:55.298Z,12.33
2022-09-02T15:54:26.469Z,12.67
2022-09-02T15:57:00.646Z,12.37
2022-09-02T15:59:32.289Z,12.22
2022-09-02T16:02:05.272Z,12.18
2022-09-02T16:04:36.670Z,12.08
2022-09-02T16:07:07.874Z,12.12
2022-09-02T16:09:39.230Z,12.20
2022-09-02T16:12:11.388Z,12.26
2022-09-02T16:14:40.683Z,12.26
2022-09-02T16:17:12.840Z,12.04
2022-09-02T16:19:43.820Z,11.81
2022-09-02T16:22:13.818Z,11.74
2022-09-02T16:24:44.013Z,11.98
2022-09-02T16:27:38.935Z,11.82
2022-09-02T16:30:10.773Z,11.82
2022-09-02T16:32:43.899Z,11.68
2022-09-02T16:35:34.782Z,11.63
2022-09-02T16:38:05.069Z,11.70
2022-09-02T16:40:37.687Z,11.71
2022-09-02T16:43:08.459Z,11.73
2022-09-02T16:45:43.346Z,11.82
2022-09-02T16:48:15.025Z,11.74
2022-09-02T16:50:48.404Z,11.76
2022-09-02T16:53:22.680Z,11.71
2022-09-02T16:55:58.549Z,11.78
2022-09-02T16:58:30.241Z,11.75
2022-09-02T17:01:00.605Z,11.77
2022-09-02T17:03:32.804Z,11.81
2022-09-02T17:06:03.626Z,11.86
2022-09-02T17:08:35.150Z,11.85
2022-09-02T17:11:20.273Z,12.23
2022-09-02T17:13:51.644Z,11.91
2022-09-02T17:16:25.593Z,11.76
2022-09-02T17:18:56.858Z,11.72
2022-09-02T17:21:30.749Z,11.69
2022-09-02T17:24:01.018Z,11.72
2022-09-02T17:26:33.105Z,11.73
2022-09-02T17:29:14.097Z,11.83
2022-09-02T17:31:56.587Z,11.68
2022-09-02T17:34:29.045Z,11.82
2022-09-02T17:36:58.643Z,11.83
2022-09-02T17:39:29.893Z,11.78
2022-09-02T17:42:01.160Z,11.91
2022-09-02T17:44:33.704Z,11.99
2022-09-02T17:47:06.585Z,11.88
2022-09-02T17:49:38.723Z,12.00
2022-09-02T17:52:09.442Z,12.02
2022-09-02T17:54:41.879Z,12.03
2022-09-02T17:57:48.805Z,12.12
2022-09-02T18:00:22.646Z,11.93
2022-09-02T18:03:25.834Z,12.14
2022-09-02T18:06:15.564Z,12.19
2022-09-02T18:08:56.435Z,12.12
2022-09-02T18:11:33.050Z,12.01
2022-09-02T18:14:15.205Z,12.07
2022-09-02T18:16:59.465Z,12.03
2022-09-02T18:19:46.051Z,12.04
2022-09-02T18:22:35.948Z,12.06
2022-09-02T18:25:21.825Z,12.06
2022-09-02T18:28:00.178Z,12.00
2022-09-02T18:30:42.034Z,11.99
2022-09-02T18:33:45.934Z,12.05
2022-09-02T18:36:28.170Z,12.02
2022-09-02T18:39:15.328Z,12.04
2022-09-02T18:41:59.101Z,12.02
2022-09-02T18:44:40.727Z,11.92
2022-09-02T18:47:12.172Z,12.33
2022-09-02T18:49:43.690Z,11.93
2022-09-02T18:52:13.222Z,12.39
2022-09-02T18:54:54.487Z,12.03
2022-09-02T18:57:29.379Z,11.90
2022-09-02T19:00:08.100Z,11.76
2022-09-02T19:02:45.165Z,11.76
2022-09-02T19:05:18.734Z,11.64
2022-09-02T19:08:07.813Z,11.55
2022-09-02T19:10:39.965Z,11.54
2022-09-02T19:13:10.410Z,11.51
2022-09-02T19:15:41.045Z,11.35
2022-09-02T19:18:11.593Z,11.32
2022-09-02T19:20:42.979Z,11.28
2022-09-02T19:23:14.706Z,11.28
2022-09-02T19:25:47.553Z,11.15
2022-09-02T19:28:18.764Z,11.11
2022-09-02T19:30:48.895Z,11.08
2022-09-02T19:33:19.351Z,10.96
2022-09-02T19:35:51.194Z,11.06
2022-09-02T19:38:23.892Z,10.95
2022-09-02T19:40:56.088Z,10.90
2022-09-02T19:43:26.546Z,10.88
2022-09-02T19:45:58.253Z,10.81
2022-09-02T19:48:30.204Z,10.80
2022-09-02T19:50:59.722Z,10.71
2022-09-02T19:53:30.391Z,10.74
2022-09-02T19:56:02.011Z,10.75
2022-09-02T19:58:32.487Z,10.71
2022-09-02T20:01:03.590Z,10.66
2022-09-02T20:03:35.577Z,10.68
2022-09-02T20:06:06.374Z,10.52
2022-09-02T20:08:36.199Z,10.49
2022-09-02T20:11:08.779Z,10.43
2022-09-02T20:13:41.549Z,10.41
2022-09-02T20:16:20.659Z,10.49
2022-09-02T20:18:51.291Z,10.40
2022-09-02T20:21:23.687Z,10.40
2022-09-02T20:23:54.575Z,10.40
2022-09-02T20:26:40.951Z,10.50
2022-09-02T20:29:23.129Z,10.37
2022-09-02T20:32:07.742Z,10.35
2022-09-02T20:34:47.412Z,10.29
2022-09-02T20:37:29.643Z,10.25
2022-09-02T20:40:34.999Z,10.31
2022-09-02T20:43:26.095Z,10.28
2022-09-02T20:48:40.072Z,10.15
2022-09-02T20:51:13.589Z,10.09
2022-09-02T20:54:01.674Z,10.11
2022-09-02T20:56:40.409Z,10.09
2022-09-02T20:59:18.727Z,10.07
2022-09-02T21:01:50.776Z,9.98
2022-09-02T21:04:32.045Z,10.02
2022-09-02T21:07:06.335Z,9.99
2022-09-02T21:09:43.793Z,9.95
2022-09-02T21:12:23.556Z,9.96
2022-09-02T21:15:03.245Z,9.89
2022-09-02T21:17:43.252Z,9.87
2022-09-02T21:20:21.491Z,9.79
2022-09-02T21:22:55.779Z,9.74
2022-09-02T21:25:29.816Z,9.75
2022-09-02T21:28:04.803Z,9.76
2022-09-02T21:30:42.443Z,9.77
2022-09-02T21:33:15.442Z,9.75
2022-09-02T21:35:47.538Z,9.67
2022-09-02T21:38:22.115Z,9.73
2022-09-02T21:41:04.917Z,9.70
2022-09-02T21:43:47.187Z,9.52
2022-09-02T21:46:27.203Z,9.53
2022-09-02T21:49:01.952Z,9.52
2022-09-02T21:51:37.308Z,9.52
2022-09-02T21:54:34.262Z,9.55
2022-09-02T21:57:20.337Z,9.46
2022-09-02T22:00:00.242Z,9.44
2022-09-02T22:02:50.264Z,9.44
2022-09-02T22:05:32.514Z,9.41
2022-09-02T22:08:11.345Z,9.34
2022-09-02T22:10:49.635Z,9.31
2022-09-02T22:13:19.323Z,9.23
2022-09-02T22:15:59.120Z,9.24
2022-09-02T22:18:52.507Z,9.29
2022-09-02T22:21:31.004Z,9.21
2022-09-02T22:24:03.153Z,9.09
2022-09-02T22:26:38.827Z,9.07
2022-09-02T22:29:17.397Z,9.06
2022-09-02T22:31:51.232Z,9.01
2022-09-02T22:34:23.998Z,9.01
2022-09-02T22:36:58.004Z,9.00
2022-09-02T22:39:34.171Z,9.04
2022-09-02T22:42:13.353Z,9.05
2022-09-02T22:45:04.499Z,9.03
2022-09-02T22:47:53.720Z,9.04
2022-09-02T22:50:50.483Z,9.05
2022-09-02T22:53:19.541Z,8.94
2022-09-02T22:55:59.702Z,9.02
2022-09-02T22:58:43.304Z,9.00
2022-09-02T23:01:20.757Z,8.94
2022-09-02T23:04:12.445Z,9.02
2022-09-02T23:06:44.719Z,9.37
2022-09-02T23:09:15.897Z,8.97
2022-09-02T23:11:57.217Z,8.99
2022-09-02T23:14:35.699Z,8.99
2022-09-02T23:17:23.947Z,9.01
2022-09-02T23:20:15.213Z,8.97
2022-09-02T23:23:04.964Z,8.92
2022-09-02T23:25:45.111Z,8.93
2022-09-02T23:28:16.838Z,8.80
2022-09-02T23:30:53.824Z,8.81
2022-09-02T23:33:36.791Z,8.86
2022-09-02T23:36:15.523Z,8.71
2022-09-02T23:39:03.306Z,8.82
2022-09-02T23:41:32.395Z,8.70
2022-09-02T23:44:01.859Z,8.70
2022-09-02T23:46:46.697Z,8.75
2022-09-02T23:49:25.807Z,8.69
2022-09-02T23:52:06.232Z,8.70
2022-09-02T23:54:55.711Z,8.74
2022-09-02T23:57:42.761Z,8.69
